Weather at San Geronimo Airpark

Public forecast

Using degrees Fahrenheit for public forecast. Weather courtesy of forecast.io.

Closest aviation weather report (METAR) to San Geronimo Airpark

Closest report is Castroville Municipal Airport, 10.5 nm (19.4 km) SSW.

2024/05/24 12:55 (retrieved 29 minutes ago)

KCVB 241255Z AUTO 09004KT 5SM HZ OVC019 26/14 A2979 RMK AO2 T02600141

Closest aviation forecast (TAF) to San Geronimo Airpark

Closest forecast is Lackland Air Force Base, 13.7 nm (25.3 km) ESE.

2024/05/24 10:03 (retrieved 3 hours ago)

TAF KSKF 241000Z 2410/2516 15009KT 8000 HZ BKN015 QNH2972INS TEMPO 2412/2416 SCT015 BKN020 BECMG 2415/2416 17012KT 8000 HZ SCT020 BKN030 QNH2970INS BECMG 2418/2419 18010G15KT 9999 NSW SCT050 SCT250 QNH2961INS BECMG 2423/2424 15010KT 9999 BKN070 QNH2961INS BECMG 2504/2505 15008KT 9999 BKN012 QNH2972INS BECMG 2511/2512 15006KT 8000 HZ BKN008 QNH2976INS TX38/2422Z TN26/2412Z